sensor_id;sensor_type;location;lat;lon;timestamp;pressure;altitude;pressure_sealevel;temperature;humidity
41898;BME280;27576;53.366;-1.498;2023-08-07T00:00:12;100544.28;;;13.13;100.00
41898;BME280;27576;53.366;-1.498;2023-08-07T00:02:38;100552.06;;;13.11;100.00
41898;BME280;27576;53.366;-1.498;2023-08-07T00:05:05;100542.53;;;13.09;100.00
41898;BME280;27576;53.366;-1.498;2023-08-07T00:07:31;100548.56;;;13.06;100.00
41898;BME280;27576;53.366;-1.498;2023-08-07T00:09:56;100519.00;;;12.89;100.00
41898;BME280;27576;53.366;-1.498;2023-08-07T00:12:22;100532.94;;;13.00;100.00
41898;BME280;27576;53.366;-1.498;2023-08-07T00:14:49;100543.34;;;12.97;100.00
41898;BME280;27576;53.366;-1.498;2023-08-07T00:17:15;100509.41;;;12.74;100.00
41898;BME280;27576;53.366;-1.498;2023-08-07T00:19:40;100515.50;;;12.77;100.00
41898;BME280;27576;53.366;-1.498;2023-08-07T00:22:06;100522.41;;;12.80;100.00
41898;BME280;27576;53.366;-1.498;2023-08-07T00:24:31;100534.56;;;12.84;100.00
41898;BME280;27576;53.366;-1.498;2023-08-07T00:26:56;100515.44;;;12.71;100.00
41898;BME280;27576;53.366;-1.498;2023-08-07T00:29:22;100517.19;;;12.69;100.00
41898;BME280;27576;53.366;-1.498;2023-08-07T00:31:47;100499.81;;;12.62;100.00
41898;BME280;27576;53.366;-1.498;2023-08-07T00:34:12;100527.66;;;12.82;100.00
41898;BME280;27576;53.366;-1.498;2023-08-07T00:36:38;100518.94;;;12.80;100.00
41898;BME280;27576;53.366;-1.498;2023-08-07T00:39:03;100529.38;;;12.83;100.00
41898;BME280;27576;53.366;-1.498;2023-08-07T00:41:29;100505.03;;;12.71;100.00
41898;BME280;27576;53.366;-1.498;2023-08-07T00:43:54;100520.69;;;12.81;100.00
41898;BME280;27576;53.366;-1.498;2023-08-07T00:46:20;100525.03;;;12.82;100.00
41898;BME280;27576;53.366;-1.498;2023-08-07T00:48:45;100504.13;;;12.65;100.00
41898;BME280;27576;53.366;-1.498;2023-08-07T00:51:11;100494.56;;;12.61;100.00
41898;BME280;27576;53.366;-1.498;2023-08-07T00:53:38;100515.47;;;12.74;100.00
41898;BME280;27576;53.366;-1.498;2023-08-07T00:56:03;100492.88;;;12.64;100.00
41898;BME280;27576;53.366;-1.498;2023-08-07T00:58:29;100498.94;;;12.62;100.00
41898;BME280;27576;53.366;-1.498;2023-08-07T01:00:55;100503.25;;;12.64;100.00
41898;BME280;27576;53.366;-1.498;2023-08-07T01:03:20;100508.47;;;12.67;100.00
41898;BME280;27576;53.366;-1.498;2023-08-07T01:05:46;100503.25;;;12.64;100.00
41898;BME280;27576;53.366;-1.498;2023-08-07T01:08:11;100491.94;;;12.51;100.00
41898;BME280;27576;53.366;-1.498;2023-08-07T01:13:20;100508.44;;;12.58;100.00
41898;BME280;27576;53.366;-1.498;2023-08-07T01:15:50;100467.53;;;12.31;100.00
41898;BME280;27576;53.366;-1.498;2023-08-07T01:18:17;100498.00;;;12.52;100.00
41898;BME280;27576;53.366;-1.498;2023-08-07T01:20:43;100478.84;;;12.39;100.00
41898;BME280;27576;53.366;-1.498;2023-08-07T01:23:08;100488.44;;;12.48;100.00
41898;BME280;27576;53.366;-1.498;2023-08-07T01:25:35;100484.91;;;12.40;100.00
41898;BME280;27576;53.366;-1.498;2023-08-07T01:30:45;100477.06;;;12.34;100.00
41898;BME280;27576;53.366;-1.498;2023-08-07T01:35:52;100489.25;;;12.41;100.00
41898;BME280;27576;53.366;-1.498;2023-08-07T01:38:20;100494.44;;;12.41;100.00
41898;BME280;27576;53.366;-1.498;2023-08-07T01:40:47;100477.91;;;12.29;100.00
41898;BME280;27576;53.366;-1.498;2023-08-07T01:43:12;100446.63;;;12.13;100.00
41898;BME280;27576;53.366;-1.498;2023-08-07T01:45:38;100489.22;;;12.36;100.00
41898;BME280;27576;53.366;-1.498;2023-08-07T01:48:04;100473.63;;;12.30;100.00
41898;BME280;27576;53.366;-1.498;2023-08-07T01:50:29;100483.13;;;12.33;100.00
41898;BME280;27576;53.366;-1.498;2023-08-07T01:52:55;100466.66;;;12.27;100.00
41898;BME280;27576;53.366;-1.498;2023-08-07T01:55:22;100456.22;;;12.18;100.00
41898;BME280;27576;53.366;-1.498;2023-08-07T01:57:47;100491.81;;;12.38;100.00
41898;BME280;27576;53.366;-1.498;2023-08-07T02:00:13;100459.66;;;12.22;100.00
41898;BME280;27576;53.366;-1.498;2023-08-07T02:02:38;100460.50;;;12.16;100.00
41898;BME280;27576;53.366;-1.498;2023-08-07T02:05:04;100490.97;;;12.36;100.00
41898;BME280;27576;53.366;-1.498;2023-08-07T02:07:31;100478.84;;;12.35;100.00
41898;BME280;27576;53.366;-1.498;2023-08-07T02:09:57;100457.91;;;12.16;100.00
41898;BME280;27576;53.366;-1.498;2023-08-07T02:12:23;100464.88;;;12.20;100.00
41898;BME280;27576;53.366;-1.498;2023-08-07T02:14:49;100478.78;;;12.28;100.00
41898;BME280;27576;53.366;-1.498;2023-08-07T02:17:15;100458.78;;;12.15;100.00
41898;BME280;27576;53.366;-1.498;2023-08-07T02:19:40;100477.06;;;12.31;100.00
41898;BME280;27576;53.366;-1.498;2023-08-07T02:22:05;100484.03;;;12.35;100.00
41898;BME280;27576;53.366;-1.498;2023-08-07T02:24:31;100462.31;;;12.29;100.00
41898;BME280;27576;53.366;-1.498;2023-08-07T02:26:56;100471.00;;;12.33;100.00
41898;BME280;27576;53.366;-1.498;2023-08-07T02:29:21;100481.47;;;12.42;100.00
41898;BME280;27576;53.366;-1.498;2023-08-07T02:31:47;100484.94;;;12.43;100.00
41898;BME280;27576;53.366;-1.498;2023-08-07T02:34:12;100461.47;;;12.27;100.00
41898;BME280;27576;53.366;-1.498;2023-08-07T02:36:37;100495.34;;;12.43;100.00
41898;BME280;27576;53.366;-1.498;2023-08-07T02:39:03;100473.59;;;12.33;100.00
41898;BME280;27576;53.366;-1.498;2023-08-07T02:41:29;100459.69;;;12.23;100.00
41898;BME280;27576;53.366;-1.498;2023-08-07T02:43:54;100490.13;;;12.41;100.00
41898;BME280;27576;53.366;-1.498;2023-08-07T02:46:20;100475.34;;;12.33;100.00
41898;BME280;27576;53.366;-1.498;2023-08-07T02:48:45;100491.88;;;12.42;100.00
41898;BME280;27576;53.366;-1.498;2023-08-07T02:51:11;100489.25;;;12.41;100.00
41898;BME280;27576;53.366;-1.498;2023-08-07T02:53:36;100469.22;;;12.26;100.00
41898;BME280;27576;53.366;-1.498;2023-08-07T02:56:01;100490.97;;;12.39;100.00
41898;BME280;27576;53.366;-1.498;2023-08-07T02:58:27;100478.84;;;12.36;100.00
41898;BME280;27576;53.366;-1.498;2023-08-07T03:00:52;100451.00;;;12.21;100.00
41898;BME280;27576;53.366;-1.498;2023-08-07T03:03:18;100446.69;;;12.22;100.00
41898;BME280;27576;53.366;-1.498;2023-08-07T03:05:50;100477.97;;;12.37;100.00
41898;BME280;27576;53.366;-1.498;2023-08-07T03:08:16;100457.09;;;12.23;100.00
41898;BME280;27576;53.366;-1.498;2023-08-07T03:10:41;100490.09;;;12.37;100.00
41898;BME280;27576;53.366;-1.498;2023-08-07T03:13:06;100489.22;;;12.38;100.00
41898;BME280;27576;53.366;-1.498;2023-08-07T03:15:32;100463.16;;;12.22;100.00
41898;BME280;27576;53.366;-1.498;2023-08-07T03:17:57;100468.41;;;12.30;100.00
41898;BME280;27576;53.366;-1.498;2023-08-07T03:20:23;100481.44;;;12.38;100.00
41898;BME280;27576;53.366;-1.498;2023-08-07T03:22:48;100484.06;;;12.41;100.00
41898;BME280;27576;53.366;-1.498;2023-08-07T03:25:13;100480.63;;;12.42;100.00
41898;BME280;27576;53.366;-1.498;2023-08-07T03:27:39;100479.75;;;12.44;100.00
41898;BME280;27576;53.366;-1.498;2023-08-07T03:30:04;100472.84;;;12.46;100.00
41898;BME280;27576;53.366;-1.498;2023-08-07T03:32:30;100479.78;;;12.47;100.00
41898;BME280;27576;53.366;-1.498;2023-08-07T03:34:55;100461.53;;;12.40;100.00
41898;BME280;27576;53.366;-1.498;2023-08-07T03:37:20;100448.50;;;12.32;100.00
41898;BME280;27576;53.366;-1.498;2023-08-07T03:39:46;100467.66;;;12.48;100.00
41898;BME280;27576;53.366;-1.498;2023-08-07T03:42:13;100472.84;;;12.48;100.00
41898;BME280;27576;53.366;-1.498;2023-08-07T03:44:40;100471.97;;;12.49;100.00
41898;BME280;27576;53.366;-1.498;2023-08-07T03:47:05;100472.84;;;12.49;100.00
41898;BME280;27576;53.366;-1.498;2023-08-07T03:49:30;100461.56;;;12.44;100.00
41898;BME280;27576;53.366;-1.498;2023-08-07T03:51:56;100471.09;;;12.45;100.00
41898;BME280;27576;53.366;-1.498;2023-08-07T03:54:21;100467.66;;;12.48;100.00
41898;BME280;27576;53.366;-1.498;2023-08-07T03:56:47;100458.91;;;12.37;100.00
41898;BME280;27576;53.366;-1.498;2023-08-07T03:59:13;100465.84;;;12.38;100.00
41898;BME280;27576;53.366;-1.498;2023-08-07T04:01:38;100460.66;;;12.35;100.00
41898;BME280;27576;53.366;-1.498;2023-08-07T04:04:04;100466.72;;;12.40;100.00
41898;BME280;27576;53.366;-1.498;2023-08-07T04:06:29;100483.22;;;12.43;100.00
41898;BME280;27576;53.366;-1.498;2023-08-07T04:08:54;100482.34;;;12.43;100.00
41898;BME280;27576;53.366;-1.498;2023-08-07T04:11:20;100456.25;;;12.27;100.00
41898;BME280;27576;53.366;-1.498;2023-08-07T04:13:45;100480.63;;;12.42;100.00
41898;BME280;27576;53.366;-1.498;2023-08-07T04:16:10;100478.00;;;12.40;100.00
41898;BME280;27576;53.366;-1.498;2023-08-07T04:18:36;100487.53;;;12.40;100.00
41898;BME280;27576;53.366;-1.498;2023-08-07T04:21:01;100443.19;;;12.17;100.00
41898;BME280;27576;53.366;-1.498;2023-08-07T04:23:26;100490.97;;;12.39;100.00
41898;BME280;27576;53.366;-1.498;2023-08-07T04:25:52;100493.56;;;12.37;100.00
41898;BME280;27576;53.366;-1.498;2023-08-07T04:28:18;100490.06;;;12.34;100.00
41898;BME280;27576;53.366;-1.498;2023-08-07T04:30:44;100490.09;;;12.37;100.00
41898;BME280;27576;53.366;-1.498;2023-08-07T04:33:10;100491.81;;;12.35;100.00
41898;BME280;27576;53.366;-1.498;2023-08-07T04:35:36;100481.41;;;12.30;100.00
41898;BME280;27576;53.366;-1.498;2023-08-07T04:38:02;100482.25;;;12.29;100.00
41898;BME280;27576;53.366;-1.498;2023-08-07T04:40:28;100498.75;;;12.37;100.00
41898;BME280;27576;53.366;-1.498;2023-08-07T04:42:53;100481.34;;;12.25;100.00
41898;BME280;27576;53.366;-1.498;2023-08-07T04:45:18;100498.75;;;12.36;100.00
41898;BME280;27576;53.366;-1.498;2023-08-07T04:47:44;100497.03;;;12.35;100.00
41898;BME280;27576;53.366;-1.498;2023-08-07T04:50:09;100465.69;;;12.13;100.00
41898;BME280;27576;53.366;-1.498;2023-08-07T04:52:35;100466.59;;;12.21;100.00
41898;BME280;27576;53.366;-1.498;2023-08-07T04:55:00;100486.59;;;12.32;100.00
41898;BME280;27576;53.366;-1.498;2023-08-07T04:57:26;100488.31;;;12.29;100.00
41898;BME280;27576;53.366;-1.498;2023-08-07T04:59:52;100479.66;;;12.31;100.00
41898;BME280;27576;53.366;-1.498;2023-08-07T05:02:17;100464.03;;;12.23;100.00
41898;BME280;27576;53.366;-1.498;2023-08-07T05:04:43;100450.97;;;12.17;100.00
41898;BME280;27576;53.366;-1.498;2023-08-07T05:07:08;100473.59;;;12.28;100.00
41898;BME280;27576;53.366;-1.498;2023-08-07T05:09:33;100461.41;;;12.21;100.00
41898;BME280;27576;53.366;-1.498;2023-08-07T05:11:59;100478.78;;;12.28;100.00
41898;BME280;27576;53.366;-1.498;2023-08-07T05:14:24;100473.59;;;12.27;100.00
41898;BME280;27576;53.366;-1.498;2023-08-07T05:16:49;100469.19;;;12.21;100.00
41898;BME280;27576;53.366;-1.498;2023-08-07T05:19:15;100471.84;;;12.27;100.00
41898;BME280;27576;53.366;-1.498;2023-08-07T05:21:40;100479.66;;;12.31;100.00
41898;BME280;27576;53.366;-1.498;2023-08-07T05:24:05;100445.78;;;12.15;100.00
41898;BME280;27576;53.366;-1.498;2023-08-07T05:26:31;100434.50;;;12.12;100.00
41898;BME280;27576;53.366;-1.498;2023-08-07T05:28:56;100444.03;;;12.11;100.00
41898;BME280;27576;53.366;-1.498;2023-08-07T05:31:23;100462.28;;;12.25;100.00
41898;BME280;27576;53.366;-1.498;2023-08-07T05:33:49;100443.19;;;12.15;100.00
41898;BME280;27576;53.366;-1.498;2023-08-07T05:36:14;100455.38;;;12.22;100.00
41898;BME280;27576;53.366;-1.498;2023-08-07T05:38:40;100482.28;;;12.37;100.00
41898;BME280;27576;53.366;-1.498;2023-08-07T05:41:05;100457.13;;;12.26;100.00
41898;BME280;27576;53.366;-1.498;2023-08-07T05:43:30;100491.00;;;12.42;100.00
41898;BME280;27576;53.366;-1.498;2023-08-07T05:45:56;100478.84;;;12.41;100.00
41898;BME280;27576;53.366;-1.498;2023-08-07T05:48:21;100484.09;;;12.42;100.00
41898;BME280;27576;53.366;-1.498;2023-08-07T05:50:46;100497.09;;;12.48;100.00
41898;BME280;27576;53.366;-1.498;2023-08-07T05:53:12;100487.56;;;12.46;100.00
41898;BME280;27576;53.366;-1.498;2023-08-07T05:55:39;100495.38;;;12.52;100.00
41898;BME280;27576;53.366;-1.498;2023-08-07T05:58:06;100492.81;;;12.55;100.00
41898;BME280;27576;53.366;-1.498;2023-08-07T06:00:31;100491.94;;;12.56;100.00
41898;BME280;27576;53.366;-1.498;2023-08-07T06:02:57;100478.06;;;12.52;100.00
41898;BME280;27576;53.366;-1.498;2023-08-07T06:05:22;100492.88;;;12.67;100.00
41898;BME280;27576;53.366;-1.498;2023-08-07T06:07:48;100475.50;;;12.60;100.00
41898;BME280;27576;53.366;-1.498;2023-08-07T06:10:13;100495.56;;;12.78;100.00
41898;BME280;27576;53.366;-1.498;2023-08-07T06:12:39;100492.09;;;12.79;100.00
41898;BME280;27576;53.366;-1.498;2023-08-07T06:15:04;100492.13;;;12.85;100.00
41898;BME280;27576;53.366;-1.498;2023-08-07T06:17:30;100491.25;;;12.88;100.00
41898;BME280;27576;53.366;-1.498;2023-08-07T06:19:55;100479.09;;;12.84;100.00
41898;BME280;27576;53.366;-1.498;2023-08-07T06:22:20;100479.97;;;12.87;100.00
41898;BME280;27576;53.366;-1.498;2023-08-07T06:24:46;100473.06;;;12.86;100.00
41898;BME280;27576;53.366;-1.498;2023-08-07T06:27:11;100488.72;;;13.01;100.00
41898;BME280;27576;53.366;-1.498;2023-08-07T06:29:36;100474.84;;;13.01;100.00
41898;BME280;27576;53.366;-1.498;2023-08-07T06:32:02;100485.28;;;13.16;100.00
41898;BME280;27576;53.366;-1.498;2023-08-07T06:34:27;100472.31;;;13.19;100.00
41898;BME280;27576;53.366;-1.498;2023-08-07T06:36:53;100472.34;;;13.24;100.00
41898;BME280;27576;53.366;-1.498;2023-08-07T06:39:19;100468.03;;;13.29;100.00
41898;BME280;27576;53.366;-1.498;2023-08-07T06:41:44;100482.81;;;13.47;100.00
41898;BME280;27576;53.366;-1.498;2023-08-07T06:44:10;100495.00;;;13.63;100.00
41898;BME280;27576;53.366;-1.498;2023-08-07T06:46:35;100478.50;;;13.63;100.00
41898;BME280;27576;53.366;-1.498;2023-08-07T06:49:00;100461.16;;;13.65;100.00
41898;BME280;27576;53.366;-1.498;2023-08-07T06:51:26;100491.56;;;13.92;100.00
41898;BME280;27576;53.366;-1.498;2023-08-07T06:53:51;100500.25;;;13.98;100.00
41898;BME280;27576;53.366;-1.498;2023-08-07T06:56:17;100508.06;;;14.05;100.00
41898;BME280;27576;53.366;-1.498;2023-08-07T06:58:43;100515.00;;;14.01;100.00
41898;BME280;27576;53.366;-1.498;2023-08-07T07:01:08;100487.22;;;13.82;100.00
41898;BME280;27576;53.366;-1.498;2023-08-07T07:03:33;100493.28;;;13.87;100.00
41898;BME280;27576;53.366;-1.498;2023-08-07T07:05:59;100518.50;;;14.09;100.00
41898;BME280;27576;53.366;-1.498;2023-08-07T07:08:24;100501.13;;;14.16;100.00
41898;BME280;27576;53.366;-1.498;2023-08-07T07:10:49;100508.06;;;14.34;100.00
41898;BME280;27576;53.366;-1.498;2023-08-07T07:13:15;100513.25;;;14.44;100.00
41898;BME280;27576;53.366;-1.498;2023-08-07T07:15:40;100496.75;;;14.39;100.00
41898;BME280;27576;53.366;-1.498;2023-08-07T07:18:05;100532.38;;;14.71;100.00
41898;BME280;27576;53.366;-1.498;2023-08-07T07:20:31;100521.03;;;14.81;100.00
41898;BME280;27576;53.366;-1.498;2023-08-07T07:22:56;100483.69;;;14.70;100.00
41898;BME280;27576;53.366;-1.498;2023-08-07T07:25:22;100502.78;;;14.84;100.00
41898;BME280;27576;53.366;-1.498;2023-08-07T07:27:47;100521.88;;;15.02;100.00
41898;BME280;27576;53.366;-1.498;2023-08-07T07:30:12;100527.03;;;15.12;100.00
41898;BME280;27576;53.366;-1.498;2023-08-07T07:32:38;100522.66;;;15.17;100.00
41898;BME280;27576;53.366;-1.498;2023-08-07T07:35:04;100519.13;;;15.25;100.00
41898;BME280;27576;53.366;-1.498;2023-08-07T07:37:30;100512.13;;;15.36;100.00
41898;BME280;27576;53.366;-1.498;2023-08-07T07:39:56;100499.94;;;15.41;100.00
41898;BME280;27576;53.366;-1.498;2023-08-07T07:42:22;100501.66;;;15.42;100.00
41898;BME280;27576;53.366;-1.498;2023-08-07T07:44:47;100495.53;;;15.46;100.00
41898;BME280;27576;53.366;-1.498;2023-08-07T07:47:13;100485.09;;;15.43;100.00
41898;BME280;27576;53.366;-1.498;2023-08-07T07:49:38;100479.03;;;15.39;100.00
41898;BME280;27576;53.366;-1.498;2023-08-07T07:52:04;100474.69;;;15.41;100.00
41898;BME280;27576;53.366;-1.498;2023-08-07T07:54:30;100498.06;;;15.58;100.00
41898;BME280;27576;53.366;-1.498;2023-08-07T07:56:56;100498.94;;;15.62;100.00
41898;BME280;27576;53.366;-1.498;2023-08-07T07:59:21;100482.41;;;15.58;100.00
41898;BME280;27576;53.366;-1.498;2023-08-07T08:01:47;100497.13;;;15.78;100.00
41898;BME280;27576;53.366;-1.498;2023-08-07T08:04:12;100461.50;;;15.58;100.00
41898;BME280;27576;53.366;-1.498;2023-08-07T08:06:37;100501.34;;;15.91;100.00
41898;BME280;27576;53.366;-1.498;2023-08-07T08:09:03;100464.84;;;15.85;100.00
41898;BME280;27576;53.366;-1.498;2023-08-07T08:11:29;100485.56;;;16.03;100.00
41898;BME280;27576;53.366;-1.498;2023-08-07T08:13:55;100484.59;;;16.15;100.00
41898;BME280;27576;53.366;-1.498;2023-08-07T08:16:20;100485.53;;;16.09;99.55
41898;BME280;27576;53.366;-1.498;2023-08-07T08:18:46;100501.28;;;16.05;99.48
41898;BME280;27576;53.366;-1.498;2023-08-07T08:21:11;100483.97;;;15.87;100.00
41898;BME280;27576;53.366;-1.498;2023-08-07T08:23:36;100509.97;;;16.05;100.00
41898;BME280;27576;53.366;-1.498;2023-08-07T08:26:03;100501.19;;;16.15;100.00
41898;BME280;27576;53.366;-1.498;2023-08-07T08:28:28;100509.78;;;16.27;100.00
41898;BME280;27576;53.366;-1.498;2023-08-07T08:30:54;100494.78;;;16.47;100.00
41898;BME280;27576;53.366;-1.498;2023-08-07T08:33:19;100503.38;;;16.58;97.01
41898;BME280;27576;53.366;-1.498;2023-08-07T08:35:45;100485.28;;;16.37;96.54
41898;BME280;27576;53.366;-1.498;2023-08-07T08:38:10;100495.66;;;16.46;98.09
41898;BME280;27576;53.366;-1.498;2023-08-07T08:40:37;100509.72;;;16.36;93.97
41898;BME280;27576;53.366;-1.498;2023-08-07T08:43:04;100503.81;;;16.11;95.60
41898;BME280;27576;53.366;-1.498;2023-08-07T08:45:30;100496.94;;;15.99;96.85
41898;BME280;27576;53.366;-1.498;2023-08-07T08:48:01;100497.81;;;15.98;98.00
41898;BME280;27576;53.366;-1.498;2023-08-07T08:50:28;100509.94;;;16.11;98.90
41898;BME280;27576;53.366;-1.498;2023-08-07T08:52:55;100505.44;;;16.26;96.58
41898;BME280;27576;53.366;-1.498;2023-08-07T08:55:21;100509.84;;;16.24;95.92
41898;BME280;27576;53.366;-1.498;2023-08-07T08:57:47;100519.47;;;16.17;96.08
41898;BME280;27576;53.366;-1.498;2023-08-07T09:00:14;100513.38;;;16.15;94.72
41898;BME280;27576;53.366;-1.498;2023-08-07T09:02:45;100498.66;;;16.05;93.56
41898;BME280;27576;53.366;-1.498;2023-08-07T09:05:10;100497.75;;;16.06;93.43
41898;BME280;27576;53.366;-1.498;2023-08-07T09:07:37;100492.53;;;16.07;91.55
41898;BME280;27576;53.366;-1.498;2023-08-07T09:10:03;100497.56;;;16.29;93.36
41898;BME280;27576;53.366;-1.498;2023-08-07T09:12:29;100504.34;;;16.50;88.22
41898;BME280;27576;53.366;-1.498;2023-08-07T09:14:57;100503.28;;;16.71;92.28
41898;BME280;27576;53.366;-1.498;2023-08-07T09:17:31;100471.81;;;16.77;90.83
41898;BME280;27576;53.366;-1.498;2023-08-07T09:19:58;100496.78;;;17.07;89.07
41898;BME280;27576;53.366;-1.498;2023-08-07T09:22:24;100460.94;;;17.10;88.23
41898;BME280;27576;53.366;-1.498;2023-08-07T09:24:49;100495.47;;;17.37;88.62
41898;BME280;27576;53.366;-1.498;2023-08-07T09:27:15;100469.22;;;17.43;87.30
41898;BME280;27576;53.366;-1.498;2023-08-07T09:29:40;100469.16;;;17.48;87.41
41898;BME280;27576;53.366;-1.498;2023-08-07T09:32:07;100481.34;;;17.49;88.99
41898;BME280;27576;53.366;-1.498;2023-08-07T09:34:33;100485.84;;;17.40;90.22
41898;BME280;27576;53.366;-1.498;2023-08-07T09:36:58;100486.88;;;17.30;90.17
41898;BME280;27576;53.366;-1.498;2023-08-07T09:39:24;100452.19;;;17.11;91.81
41898;BME280;27576;53.366;-1.498;2023-08-07T09:41:53;100459.72;;;17.36;92.62
41898;BME280;27576;53.366;-1.498;2023-08-07T09:44:19;100451.38;;;17.68;93.22
41898;BME280;27576;53.366;-1.498;2023-08-07T09:46:44;100456.09;;;18.02;91.59
41898;BME280;27576;53.366;-1.498;2023-08-07T09:49:10;100469.69;;;18.25;90.49
41898;BME280;27576;53.366;-1.498;2023-08-07T09:51:46;100476.69;;;18.25;87.78
41898;BME280;27576;53.366;-1.498;2023-08-07T09:54:12;100483.00;;;18.13;87.01
41898;BME280;27576;53.366;-1.498;2023-08-07T09:56:39;100484.22;;;17.94;87.81
41898;BME280;27576;53.366;-1.498;2023-08-07T09:59:05;100474.88;;;17.76;88.61
41898;BME280;27576;53.366;-1.498;2023-08-07T10:01:31;100468.97;;;17.60;89.79
41898;BME280;27576;53.366;-1.498;2023-08-07T10:03:57;100466.56;;;17.46;89.01
41898;BME280;27576;53.366;-1.498;2023-08-07T10:06:23;100459.72;;;17.37;89.66
41898;BME280;27576;53.366;-1.498;2023-08-07T10:08:49;100456.03;;;17.49;88.27
41898;BME280;27576;53.366;-1.498;2023-08-07T10:11:15;100434.88;;;17.61;86.39
41898;BME280;27576;53.366;-1.498;2023-08-07T10:13:41;100449.94;;;18.04;84.58
41898;BME280;27576;53.366;-1.498;2023-08-07T10:16:07;100447.94;;;18.20;82.87
41898;BME280;27576;53.366;-1.498;2023-08-07T10:18:34;100451.81;;;18.46;82.69
41898;BME280;27576;53.366;-1.498;2023-08-07T10:21:01;100457.63;;;18.61;81.21
41898;BME280;27576;53.366;-1.498;2023-08-07T10:23:27;100442.44;;;18.32;81.86
41898;BME280;27576;53.366;-1.498;2023-08-07T10:25:53;100446.84;;;18.30;84.69
41898;BME280;27576;53.366;-1.498;2023-08-07T10:28:21;100436.88;;;18.49;82.94
41898;BME280;27576;53.366;-1.498;2023-08-07T10:30:49;100426.09;;;18.64;82.89
41898;BME280;27576;53.366;-1.498;2023-08-07T10:33:15;100426.47;;;18.91;80.73
41898;BME280;27576;53.366;-1.498;2023-08-07T10:35:47;100422.53;;;19.10;77.33
41898;BME280;27576;53.366;-1.498;2023-08-07T10:38:18;100439.28;;;19.44;78.16
41898;BME280;27576;53.366;-1.498;2023-08-07T10:43:26;100427.53;;;19.61;70.76
41898;BME280;27576;53.366;-1.498;2023-08-07T10:45:53;100409.28;;;19.52;74.18
41898;BME280;27576;53.366;-1.498;2023-08-07T10:48:19;100416.31;;;19.52;75.14
41898;BME280;27576;53.366;-1.498;2023-08-07T10:50:58;100428.03;;;19.38;72.12
41898;BME280;27576;53.366;-1.498;2023-08-07T10:53:30;100415.69;;;19.02;70.74
41898;BME280;27576;53.366;-1.498;2023-08-07T10:55:56;100439.97;;;19.13;72.73
41898;BME280;27576;53.366;-1.498;2023-08-07T11:03:42;100438.72;;;18.91;71.49
41898;BME280;27576;53.366;-1.498;2023-08-07T11:06:09;100428.00;;;18.56;71.04
41898;BME280;27576;53.366;-1.498;2023-08-07T11:08:35;100405.75;;;18.31;73.27
41898;BME280;27576;53.366;-1.498;2023-08-07T11:11:05;100430.16;;;18.34;72.57
41898;BME280;27576;53.366;-1.498;2023-08-07T11:13:31;100420.63;;;18.30;72.58
41898;BME280;27576;53.366;-1.498;2023-08-07T11:15:57;100414.13;;;18.50;73.14
41898;BME280;27576;53.366;-1.498;2023-08-07T11:18:22;100426.78;;;18.74;74.56
41898;BME280;27576;53.366;-1.498;2023-08-07T11:20:48;100399.31;;;18.47;72.97
41898;BME280;27576;53.366;-1.498;2023-08-07T11:23:13;100429.06;;;18.48;72.38
41898;BME280;27576;53.366;-1.498;2023-08-07T11:25:39;100420.47;;;18.39;75.21
41898;BME280;27576;53.366;-1.498;2023-08-07T11:28:04;100428.53;;;18.75;79.13
41898;BME280;27576;53.366;-1.498;2023-08-07T11:30:29;100425.97;;;19.14;75.97
41898;BME280;27576;53.366;-1.498;2023-08-07T11:32:56;100432.72;;;19.26;73.62
41898;BME280;27576;53.366;-1.498;2023-08-07T11:35:22;100418.84;;;19.18;74.25
41898;BME280;27576;53.366;-1.498;2023-08-07T11:37:47;100431.22;;;19.12;74.29
41898;BME280;27576;53.366;-1.498;2023-08-07T11:40:13;100431.44;;;19.03;71.34
41898;BME280;27576;53.366;-1.498;2023-08-07T11:42:40;100402.94;;;18.86;73.52
41898;BME280;27576;53.366;-1.498;2023-08-07T11:45:06;100415.81;;;18.97;72.72
41898;BME280;27576;53.366;-1.498;2023-08-07T11:47:32;100413.66;;;18.76;71.49
41898;BME280;27576;53.366;-1.498;2023-08-07T11:49:58;100395.75;;;18.51;72.96
41898;BME280;27576;53.366;-1.498;2023-08-07T11:52:24;100417.50;;;18.55;74.00
41898;BME280;27576;53.366;-1.498;2023-08-07T11:54:50;100432.34;;;18.59;74.67
41898;BME280;27576;53.366;-1.498;2023-08-07T11:57:19;100437.72;;;18.51;72.67
41898;BME280;27576;53.366;-1.498;2023-08-07T11:59:48;100409.41;;;18.24;73.74
41898;BME280;27576;53.366;-1.498;2023-08-07T12:02:13;100433.81;;;18.26;74.70
41898;BME280;27576;53.366;-1.498;2023-08-07T12:04:40;100431.38;;;18.17;75.25
41898;BME280;27576;53.366;-1.498;2023-08-07T12:07:05;100415.09;;;17.98;75.44
41898;BME280;27576;53.366;-1.498;2023-08-07T12:09:30;100421.19;;;17.98;78.25
41898;BME280;27576;53.366;-1.498;2023-08-07T12:11:59;100426.66;;;17.86;77.48
41898;BME280;27576;53.366;-1.498;2023-08-07T12:14:29;100427.63;;;17.80;79.64
41898;BME280;27576;53.366;-1.498;2023-08-07T12:16:54;100421.50;;;17.81;80.34
41898;BME280;27576;53.366;-1.498;2023-08-07T12:19:20;100413.59;;;17.83;80.81
41898;BME280;27576;53.366;-1.498;2023-08-07T12:21:45;100428.50;;;17.79;77.47
41898;BME280;27576;53.366;-1.498;2023-08-07T12:24:12;100411.38;;;17.57;77.55
41898;BME280;27576;53.366;-1.498;2023-08-07T12:26:38;100409.63;;;17.57;76.65
41898;BME280;27576;53.366;-1.498;2023-08-07T12:29:03;100401.78;;;17.56;77.95
41898;BME280;27576;53.366;-1.498;2023-08-07T12:31:29;100426.91;;;17.69;76.89
41898;BME280;27576;53.366;-1.498;2023-08-07T12:33:54;100418.97;;;17.74;77.42
41898;BME280;27576;53.366;-1.498;2023-08-07T12:36:20;100394.16;;;17.96;82.44
41898;BME280;27576;53.366;-1.498;2023-08-07T12:38:45;100398.97;;;18.19;77.85
41898;BME280;27576;53.366;-1.498;2023-08-07T12:41:11;100413.56;;;18.34;74.31